createdAt,value
2023-02-25T00:00:34.317Z,10.55
2023-02-25T00:03:01.696Z,10.23
2023-02-25T00:05:31.846Z,11.20
2023-02-25T00:07:58.781Z,11.13
2023-02-25T00:10:25.254Z,11.15
2023-02-25T00:12:52.067Z,14.35
2023-02-25T00:15:19.710Z,10.77
2023-02-25T00:17:46.597Z,11.40
2023-02-25T00:20:14.110Z,12.18
2023-02-25T00:22:41.007Z,15.38
2023-02-25T00:25:09.218Z,10.07
2023-02-25T00:27:36.527Z,13.90
2023-02-25T00:30:03.685Z,15.80
2023-02-25T00:32:30.464Z,11.80
2023-02-25T00:34:57.588Z,16.80
2023-02-25T00:37:24.263Z,18.23
2023-02-25T00:39:50.745Z,16.23
2023-02-25T00:42:18.553Z,14.85
2023-02-25T00:44:50.478Z,14.52
2023-02-25T00:47:18.609Z,9.30
2023-02-25T00:49:47.561Z,11.00
2023-02-25T00:52:15.178Z,9.13
2023-02-25T00:54:41.604Z,9.98
2023-02-25T00:57:08.855Z,14.77
2023-02-25T00:59:36.089Z,11.55
2023-02-25T01:02:02.670Z,12.45
2023-02-25T01:04:29.402Z,9.38
2023-02-25T01:06:56.124Z,9.50
2023-02-25T01:09:23.231Z,9.55
2023-02-25T01:11:50.259Z,11.85
2023-02-25T01:14:19.766Z,14.93
2023-02-25T01:16:47.893Z,12.13
2023-02-25T01:19:18.505Z,8.20
2023-02-25T01:21:49.598Z,8.65
2023-02-25T01:24:20.865Z,9.20
2023-02-25T01:26:49.549Z,8.25
2023-02-25T01:31:44.748Z,10.02
2023-02-25T01:34:15.026Z,12.25
2023-02-25T01:36:41.815Z,7.93
2023-02-25T01:39:09.943Z,8.95
2023-02-25T01:41:38.589Z,9.18
2023-02-25T01:44:15.992Z,7.65
2023-02-25T01:46:49.213Z,10.18
2023-02-25T01:49:29.189Z,9.27
2023-02-25T01:52:06.741Z,11.68
2023-02-25T01:54:35.253Z,12.43
2023-02-25T01:57:05.952Z,12.40
2023-02-25T01:59:32.553Z,5.90
2023-02-25T02:01:59.308Z,11.55
2023-02-25T02:04:27.472Z,10.52
2023-02-25T02:06:55.588Z,10.32
2023-02-25T02:09:26.528Z,10.02
2023-02-25T02:11:53.258Z,10.02
2023-02-25T02:14:30.185Z,14.40
2023-02-25T02:17:20.993Z,10.70
2023-02-25T02:20:13.423Z,15.05
2023-02-25T02:23:07.788Z,9.93
2023-02-25T02:25:52.709Z,11.88
2023-02-25T02:28:58.429Z,8.77
2023-02-25T02:32:07.229Z,15.20
2023-02-25T02:34:37.607Z,10.18
2023-02-25T02:37:22.458Z,9.45
2023-02-25T02:40:25.926Z,13.20
2023-02-25T02:43:24.889Z,12.93
2023-02-25T02:46:38.231Z,13.25
2023-02-25T02:49:17.223Z,15.93
2023-02-25T02:51:52.562Z,14.48
2023-02-25T02:54:22.474Z,10.05
2023-02-25T02:56:51.808Z,14.43
2023-02-25T02:59:28.331Z,14.10
2023-02-25T03:02:03.898Z,10.77
2023-02-25T03:04:34.627Z,9.25
2023-02-25T03:07:05.642Z,11.63
2023-02-25T03:09:40.737Z,8.80
2023-02-25T03:12:07.569Z,10.68
2023-02-25T03:14:36.922Z,10.10
2023-02-25T03:19:53.060Z,11.00
2023-02-25T03:22:27.907Z,11.40
2023-02-25T03:25:07.240Z,14.70
2023-02-25T03:27:39.563Z,12.15
2023-02-25T03:30:18.295Z,10.52
2023-02-25T03:32:49.771Z,8.50
2023-02-25T03:35:20.820Z,10.85
2023-02-25T03:37:51.834Z,10.98
2023-02-25T03:40:21.137Z,11.05
2023-02-25T03:43:11.994Z,12.45
2023-02-25T03:45:39.686Z,14.85
2023-02-25T03:48:09.202Z,7.45
2023-02-25T03:50:44.466Z,8.73
2023-02-25T03:53:14.099Z,7.88
2023-02-25T03:55:49.865Z,12.40
2023-02-25T03:58:16.376Z,8.77
2023-02-25T04:00:46.842Z,10.40
2023-02-25T04:03:13.604Z,10.40
2023-02-25T04:05:40.265Z,11.18
2023-02-25T04:08:15.199Z,9.80
2023-02-25T04:10:43.912Z,10.90
2023-02-25T04:15:38.910Z,13.05
2023-02-25T04:18:05.883Z,9.45
2023-02-25T04:20:33.070Z,7.45
2023-02-25T04:23:01.184Z,12.73
2023-02-25T04:25:28.505Z,10.43
2023-02-25T04:27:55.381Z,8.52
2023-02-25T04:30:22.092Z,7.57
2023-02-25T04:32:48.611Z,11.68
2023-02-25T04:35:15.588Z,10.07
2023-02-25T04:37:43.460Z,12.40
2023-02-25T04:40:19.276Z,10.25
2023-02-25T04:42:46.083Z,5.70
2023-02-25T04:45:13.738Z,11.35
2023-02-25T04:47:40.588Z,11.00
2023-02-25T04:50:09.568Z,9.23
2023-02-25T04:52:36.489Z,10.65
2023-02-25T04:55:03.329Z,12.80
2023-02-25T04:57:29.888Z,11.73
2023-02-25T04:59:56.319Z,11.88
2023-02-25T05:02:22.936Z,16.52
2023-02-25T05:04:49.671Z,7.47
2023-02-25T05:07:16.112Z,11.25
2023-02-25T05:09:42.845Z,12.15
2023-02-25T05:12:09.640Z,12.05
2023-02-25T05:14:37.382Z,16.10
2023-02-25T05:17:04.836Z,7.40
2023-02-25T05:19:31.624Z,9.32
2023-02-25T05:21:58.336Z,8.27
2023-02-25T05:24:24.782Z,14.40
2023-02-25T05:26:51.704Z,13.27
2023-02-25T05:29:18.250Z,12.32
2023-02-25T05:31:45.164Z,12.35
2023-02-25T05:34:12.069Z,9.63
2023-02-25T05:36:38.601Z,10.68
2023-02-25T05:39:06.633Z,10.40
2023-02-25T05:41:33.232Z,9.82
2023-02-25T05:43:59.782Z,10.48
2023-02-25T05:46:27.092Z,17.52
2023-02-25T05:48:54.519Z,10.15
2023-02-25T05:51:23.326Z,11.52
2023-02-25T05:53:50.992Z,11.68
2023-02-25T05:56:20.638Z,15.05
2023-02-25T05:58:48.400Z,13.15
2023-02-25T06:01:18.634Z,16.10
2023-02-25T06:03:46.919Z,8.80
2023-02-25T06:06:15.113Z,9.95
2023-02-25T06:08:44.311Z,11.20
2023-02-25T06:11:14.356Z,9.80
2023-02-25T06:13:41.947Z,11.38
2023-02-25T06:16:08.661Z,10.80
2023-02-25T06:18:37.145Z,11.35
2023-02-25T06:21:06.927Z,11.88
2023-02-25T06:23:38.519Z,8.98
2023-02-25T06:26:06.534Z,13.25
2023-02-25T06:28:33.143Z,8.65
2023-02-25T06:31:00.194Z,9.52
2023-02-25T06:33:29.011Z,6.38
2023-02-25T06:35:56.239Z,10.40
2023-02-25T06:38:22.885Z,11.82
2023-02-25T06:40:51.104Z,10.60
2023-02-25T06:43:17.909Z,10.40
2023-02-25T06:45:44.826Z,14.90
2023-02-25T06:48:11.693Z,12.43
2023-02-25T06:50:39.603Z,10.65
2023-02-25T06:53:07.053Z,17.38
2023-02-25T06:55:33.881Z,16.35
2023-02-25T06:58:00.674Z,11.02
2023-02-25T07:00:27.167Z,6.65
2023-02-25T07:02:53.891Z,10.15
2023-02-25T07:05:20.602Z,9.25
2023-02-25T07:07:47.329Z,8.00
2023-02-25T07:10:13.822Z,10.55
2023-02-25T07:12:40.458Z,7.63
2023-02-25T07:15:07.832Z,11.68
2023-02-25T07:17:34.479Z,16.65
2023-02-25T07:20:01.136Z,6.95
2023-02-25T07:22:27.538Z,9.32
2023-02-25T07:24:54.082Z,7.78
2023-02-25T07:27:20.806Z,11.93
2023-02-25T07:29:47.581Z,9.07
2023-02-25T07:32:14.449Z,12.50
2023-02-25T07:34:41.385Z,8.35
2023-02-25T07:37:08.406Z,12.13
2023-02-25T07:39:35.125Z,11.50
2023-02-25T07:42:01.812Z,10.38
2023-02-25T07:44:28.551Z,8.80
2023-02-25T07:46:55.394Z,15.85
2023-02-25T07:49:22.069Z,8.82
2023-02-25T07:51:48.587Z,9.38
2023-02-25T07:54:16.070Z,14.63
2023-02-25T07:56:42.830Z,12.95
2023-02-25T07:59:09.336Z,12.23
2023-02-25T08:01:37.589Z,10.27
2023-02-25T08:04:05.959Z,14.52
2023-02-25T08:06:37.611Z,11.40
2023-02-25T08:09:06.420Z,9.65
2023-02-25T08:14:00.963Z,13.95
2023-02-25T08:16:27.709Z,9.02
2023-02-25T08:18:54.787Z,10.38
2023-02-25T08:21:23.533Z,11.40
2023-02-25T08:23:54.320Z,8.82
2023-02-25T08:26:22.720Z,14.63
2023-02-25T08:28:50.853Z,20.30
2023-02-25T08:31:18.283Z,14.95
2023-02-25T08:33:52.778Z,13.85
2023-02-25T08:36:22.777Z,10.45
2023-02-25T08:38:50.208Z,11.35
2023-02-25T08:41:18.326Z,16.98
2023-02-25T08:43:48.831Z,13.43
2023-02-25T08:46:15.710Z,15.13
2023-02-25T08:48:42.351Z,11.90
2023-02-25T08:51:10.211Z,19.13
2023-02-25T08:53:39.037Z,12.30
2023-02-25T08:58:32.725Z,13.10
2023-02-25T09:00:59.725Z,10.25
2023-02-25T09:03:26.504Z,12.32
2023-02-25T09:05:54.858Z,17.33
2023-02-25T09:08:21.615Z,13.43
2023-02-25T09:10:50.916Z,15.32
2023-02-25T09:13:17.850Z,11.57
2023-02-25T09:15:44.457Z,12.88
2023-02-25T09:18:11.802Z,11.75
2023-02-25T09:20:38.521Z,12.32
2023-02-25T09:23:05.117Z,15.68
2023-02-25T09:25:31.736Z,13.25
2023-02-25T09:27:58.202Z,13.90
2023-02-25T09:30:24.917Z,11.00
2023-02-25T09:32:52.149Z,11.75
2023-02-25T09:35:19.140Z,10.00
2023-02-25T09:37:45.603Z,11.32
2023-02-25T09:40:18.940Z,9.48
2023-02-25T09:43:20.849Z,8.05
2023-02-25T09:45:53.840Z,8.00
2023-02-25T09:48:27.740Z,10.18
2023-02-25T09:51:18.744Z,9.95
2023-02-25T09:53:53.342Z,6.57
2023-02-25T09:56:22.035Z,8.77
2023-02-25T10:01:34.323Z,4.97
2023-02-25T10:04:08.822Z,5.53
2023-02-25T10:06:40.510Z,8.63
2023-02-25T10:09:13.388Z,5.05
2023-02-25T10:12:15.369Z,4.57
2023-02-25T10:15:16.520Z,4.30
2023-02-25T10:18:26.183Z,7.20
2023-02-25T10:21:01.004Z,4.85
2023-02-25T10:23:39.580Z,3.00
2023-02-25T10:26:26.344Z,4.20
2023-02-25T10:28:58.947Z,1.77
2023-02-25T10:31:26.653Z,4.32
2023-02-25T10:33:54.162Z,2.05
2023-02-25T10:36:43.824Z,3.00
2023-02-25T10:39:11.217Z,4.20
2023-02-25T10:41:37.932Z,2.05
2023-02-25T10:44:04.514Z,0.70
2023-02-25T10:46:50.014Z,1.77
2023-02-25T10:49:23.215Z,3.20
2023-02-25T10:52:19.287Z,2.95
2023-02-25T10:54:48.316Z,6.10
2023-02-25T10:57:25.899Z,4.32
2023-02-25T11:00:26.918Z,2.03
2023-02-25T11:05:36.475Z,2.88
2023-02-25T11:08:07.714Z,3.05
2023-02-25T11:10:34.979Z,3.35
2023-02-25T11:13:03.550Z,5.45
2023-02-25T11:15:44.707Z,5.68
2023-02-25T11:18:11.977Z,8.38
2023-02-25T11:20:39.862Z,6.18
2023-02-25T11:23:06.648Z,4.63
2023-02-25T11:25:39.801Z,6.60
2023-02-25T11:28:16.759Z,2.83
2023-02-25T11:30:44.899Z,5.65
2023-02-25T11:33:36.166Z,4.30
2023-02-25T11:36:04.165Z,7.35
2023-02-25T11:38:44.506Z,6.55
2023-02-25T11:41:17.605Z,6.47
2023-02-25T11:43:44.830Z,4.70
2023-02-25T11:46:19.556Z,6.97
2023-02-25T11:48:50.788Z,5.25
2023-02-25T11:51:40.927Z,5.25
2023-02-25T11:54:26.108Z,4.30
2023-02-25T11:57:01.710Z,3.60
2023-02-25T11:59:34.444Z,5.43
2023-02-25T12:02:22.527Z,8.75
2023-02-25T12:08:05.220Z,4.20
2023-02-25T12:11:14.812Z,3.90
2023-02-25T12:14:19.581Z,2.80
2023-02-25T12:17:07.864Z,4.70
2023-02-25T12:20:09.504Z,6.18
2023-02-25T12:22:39.112Z,8.35
2023-02-25T12:25:23.809Z,5.43
2023-02-25T12:28:12.284Z,7.78
2023-02-25T12:30:50.611Z,4.60
2023-02-25T12:33:43.275Z,5.57
2023-02-25T12:36:10.035Z,4.95
2023-02-25T12:38:48.711Z,7.40
2023-02-25T12:41:28.461Z,6.13
2023-02-25T12:44:38.987Z,4.63
2023-02-25T12:47:11.686Z,6.28
2023-02-25T12:50:29.982Z,6.82
2023-02-25T12:53:18.905Z,4.53
2023-02-25T12:56:06.415Z,6.43
2023-02-25T12:58:39.933Z,6.13
2023-02-25T13:01:22.065Z,3.63
2023-02-25T13:03:58.318Z,2.60
2023-02-25T13:06:50.005Z,7.32
2023-02-25T13:09:52.895Z,2.83
2023-02-25T13:12:34.638Z,7.10
2023-02-25T13:17:42.397Z,9.30
2023-02-25T13:20:31.234Z,6.50
2023-02-25T13:23:09.279Z,3.97
2023-02-25T13:26:01.114Z,3.75
2023-02-25T13:28:49.197Z,8.10
2023-02-25T13:33:58.758Z,5.10
2023-02-25T13:36:35.055Z,4.30
2023-02-25T13:39:35.674Z,6.72
2023-02-25T13:42:15.721Z,4.00
2023-02-25T13:44:51.494Z,6.20
2023-02-25T13:47:18.321Z,5.68
2023-02-25T13:49:54.507Z,3.88
2023-02-25T13:52:25.064Z,8.70
2023-02-25T13:55:03.725Z,8.15
2023-02-25T13:57:51.093Z,3.42
2023-02-25T14:01:14.798Z,5.38
2023-02-25T14:04:19.236Z,3.88
2023-02-25T14:07:16.908Z,4.95
2023-02-25T14:10:40.879Z,2.50
2023-02-25T14:13:33.648Z,4.68
2023-02-25T14:16:18.733Z,2.53
2023-02-25T14:19:26.896Z,6.28
2023-02-25T14:22:02.340Z,3.40
2023-02-25T14:24:41.064Z,5.78
2023-02-25T14:27:31.572Z,6.07
2023-02-25T14:30:30.947Z,8.07
2023-02-25T14:33:17.844Z,4.07
2023-02-25T14:35:59.369Z,3.53
2023-02-25T14:38:32.146Z,3.55
2023-02-25T14:41:14.342Z,4.85
2023-02-25T14:43:41.800Z,4.85
2023-02-25T14:46:34.304Z,2.90
2023-02-25T14:49:05.974Z,5.70
2023-02-25T14:51:51.911Z,2.78
2023-02-25T14:54:58.749Z,2.72
2023-02-25T14:57:42.544Z,2.90
2023-02-25T15:00:35.236Z,0.80
2023-02-25T15:03:19.951Z,5.03
2023-02-25T15:06:13.463Z,3.53
2023-02-25T15:09:18.324Z,1.23
2023-02-25T15:12:02.935Z,1.48
2023-02-25T15:14:51.615Z,1.75
2023-02-25T15:17:21.194Z,3.35
2023-02-25T15:20:10.176Z,5.63
2023-02-25T15:22:38.496Z,8.98
2023-02-25T15:25:20.369Z,17.58
2023-02-25T15:28:00.515Z,4.53
2023-02-25T15:30:28.928Z,5.40
2023-02-25T15:33:24.547Z,3.60
2023-02-25T15:35:58.204Z,5.72
2023-02-25T15:38:43.930Z,6.13
2023-02-25T15:41:28.788Z,6.38
2023-02-25T15:44:00.831Z,4.20
2023-02-25T15:46:39.995Z,1.38
2023-02-25T15:49:34.396Z,2.63
2023-02-25T15:52:04.603Z,3.33
2023-02-25T15:54:31.339Z,2.97
2023-02-25T15:57:04.681Z,3.22
2023-02-25T15:59:55.448Z,3.47
2023-02-25T16:02:33.525Z,4.53
2023-02-25T16:05:23.849Z,3.42
2023-02-25T16:08:01.924Z,2.38
2023-02-25T16:10:40.065Z,2.47
2023-02-25T16:13:17.178Z,4.90
2023-02-25T16:15:52.522Z,4.03
2023-02-25T16:18:40.132Z,6.75
2023-02-25T16:21:13.910Z,3.75
2023-02-25T16:23:41.746Z,5.90
2023-02-25T16:26:16.781Z,3.22
2023-02-25T16:29:02.104Z,5.22
2023-02-25T16:31:36.841Z,2.92
2023-02-25T16:34:15.175Z,4.82
2023-02-25T16:37:01.259Z,4.97
2023-02-25T16:39:30.275Z,3.20
2023-02-25T16:42:02.731Z,2.90
2023-02-25T16:44:36.556Z,4.68
2023-02-25T16:47:20.345Z,4.00
2023-02-25T16:49:47.956Z,3.50
2023-02-25T16:52:21.644Z,3.00
2023-02-25T16:54:59.256Z,2.67
2023-02-25T16:57:26.911Z,3.50
2023-02-25T17:00:26.329Z,3.58
2023-02-25T17:02:58.370Z,7.40
2023-02-25T17:05:29.064Z,3.35
2023-02-25T17:08:02.307Z,3.40
2023-02-25T17:10:37.166Z,6.43
2023-02-25T17:13:05.410Z,5.00
2023-02-25T17:15:36.289Z,3.00
2023-02-25T17:18:20.472Z,4.50
2023-02-25T17:20:48.288Z,8.18
2023-02-25T17:23:16.315Z,9.18
2023-02-25T17:25:49.089Z,6.78
2023-02-25T17:28:29.641Z,5.03
2023-02-25T17:31:18.235Z,4.35
2023-02-25T17:33:55.027Z,4.32
2023-02-25T17:36:32.191Z,4.50
2023-02-25T17:39:03.012Z,4.53
2023-02-25T17:41:29.933Z,5.25
2023-02-25T17:43:56.970Z,4.38
2023-02-25T17:46:26.797Z,4.78
2023-02-25T17:48:57.432Z,3.90
2023-02-25T17:51:33.333Z,5.57
2023-02-25T17:54:08.194Z,7.53
2023-02-25T17:56:36.132Z,5.43
2023-02-25T17:59:05.504Z,5.43
2023-02-25T18:01:48.847Z,3.10
2023-02-25T18:04:32.442Z,7.82
2023-02-25T18:07:18.928Z,3.75
2023-02-25T18:09:45.786Z,3.35
2023-02-25T18:12:29.728Z,2.35
2023-02-25T18:15:15.691Z,4.25
2023-02-25T18:17:49.050Z,7.63
2023-02-25T18:20:34.016Z,5.13
2023-02-25T18:23:02.646Z,4.32
2023-02-25T18:25:34.453Z,4.93
2023-02-25T18:28:01.853Z,6.15
2023-02-25T18:30:30.699Z,5.28
2023-02-25T18:37:56.028Z,7.25
2023-02-25T18:40:33.019Z,5.95
2023-02-25T18:43:00.182Z,4.43
2023-02-25T18:45:28.675Z,8.20
2023-02-25T18:47:56.740Z,8.57
2023-02-25T18:50:24.540Z,4.57
2023-02-25T18:52:51.255Z,4.72
2023-02-25T18:55:23.946Z,3.88
2023-02-25T18:57:51.041Z,8.23
2023-02-25T19:00:20.148Z,7.22
2023-02-25T19:02:55.373Z,6.80
2023-02-25T19:05:25.083Z,6.65
2023-02-25T19:07:52.199Z,4.97
2023-02-25T19:10:22.994Z,6.28
2023-02-25T19:12:50.962Z,13.25
2023-02-25T19:15:21.164Z,14.18
2023-02-25T19:17:49.156Z,5.35
2023-02-25T19:20:18.443Z,4.60
2023-02-25T19:22:47.886Z,6.85
2023-02-25T19:25:17.113Z,7.57
2023-02-25T19:27:43.560Z,4.13
2023-02-25T19:30:13.983Z,5.10
2023-02-25T19:32:41.035Z,5.70
2023-02-25T19:35:10.712Z,5.95
2023-02-25T19:37:40.576Z,5.78
2023-02-25T19:40:10.799Z,7.15
2023-02-25T19:42:38.426Z,6.82
2023-02-25T19:45:08.113Z,7.93
2023-02-25T19:47:36.015Z,5.45
2023-02-25T19:50:03.818Z,5.60
2023-02-25T19:52:30.800Z,5.30
2023-02-25T19:54:57.590Z,10.98
2023-02-25T19:57:24.248Z,8.07
2023-02-25T19:59:50.835Z,6.82
2023-02-25T20:02:17.376Z,7.78
2023-02-25T20:04:44.181Z,7.32
2023-02-25T20:07:11.105Z,4.97
2023-02-25T20:09:37.881Z,5.95
2023-02-25T20:12:05.164Z,6.07
2023-02-25T20:14:33.260Z,6.85
2023-02-25T20:17:00.969Z,8.48
2023-02-25T20:19:33.001Z,9.95
2023-02-25T20:22:01.244Z,6.63
2023-02-25T20:24:28.897Z,11.82
2023-02-25T20:26:56.057Z,7.32
2023-02-25T20:29:22.806Z,11.18
2023-02-25T20:31:49.412Z,6.88
2023-02-25T20:34:19.087Z,9.43
2023-02-25T20:37:00.247Z,9.30
2023-02-25T20:39:39.286Z,11.98
2023-02-25T20:42:21.255Z,10.40
2023-02-25T20:44:51.464Z,11.00
2023-02-25T20:47:25.767Z,7.55
2023-02-25T20:49:53.674Z,8.25
2023-02-25T20:52:20.445Z,7.18
2023-02-25T20:54:48.929Z,10.25
2023-02-25T20:57:18.423Z,8.07
2023-02-25T20:59:45.424Z,10.45
2023-02-25T21:02:12.487Z,9.20
2023-02-25T21:04:39.431Z,5.85
2023-02-25T21:07:07.225Z,6.20
2023-02-25T21:09:34.527Z,8.55
2023-02-25T21:12:02.253Z,8.73
2023-02-25T21:14:29.050Z,10.30
2023-02-25T21:16:56.290Z,7.13
2023-02-25T21:19:24.683Z,6.18
2023-02-25T21:21:52.236Z,5.22
2023-02-25T21:24:19.262Z,7.53
2023-02-25T21:26:46.409Z,8.93
2023-02-25T21:29:14.053Z,5.10
2023-02-25T21:31:40.875Z,8.85
2023-02-25T21:34:09.358Z,5.50
2023-02-25T21:36:36.063Z,9.13
2023-02-25T21:39:03.652Z,6.20
2023-02-25T21:41:30.448Z,6.25
2023-02-25T21:43:57.981Z,9.65
2023-02-25T21:46:24.789Z,4.97
2023-02-25T21:48:53.225Z,8.02
2023-02-25T21:51:23.932Z,5.10
2023-02-25T21:53:58.176Z,8.80
2023-02-25T21:56:26.147Z,4.75
2023-02-25T21:58:57.671Z,4.57
2023-02-25T22:01:32.557Z,5.00
2023-02-25T22:03:59.845Z,7.13
2023-02-25T22:06:27.234Z,6.05
2023-02-25T22:08:54.612Z,6.63
2023-02-25T22:11:28.775Z,6.07
2023-02-25T22:13:55.853Z,4.75
2023-02-25T22:16:23.786Z,6.63
2023-02-25T22:18:51.645Z,4.32
2023-02-25T22:21:23.667Z,5.35
2023-02-25T22:23:52.718Z,4.20
2023-02-25T22:26:22.321Z,3.88
2023-02-25T22:28:53.503Z,6.15
2023-02-25T22:31:20.490Z,5.57
2023-02-25T22:33:47.018Z,6.90
2023-02-25T22:36:15.608Z,8.18
2023-02-25T22:38:43.325Z,4.32
2023-02-25T22:41:15.798Z,5.35
2023-02-25T22:43:42.880Z,6.32
2023-02-25T22:46:15.736Z,4.65
2023-02-25T22:48:44.529Z,4.18
2023-02-25T22:51:11.624Z,9.80
2023-02-25T22:53:40.161Z,6.65
2023-02-25T22:56:09.572Z,5.95
2023-02-25T22:58:38.852Z,6.10
2023-02-25T23:01:06.308Z,8.45
2023-02-25T23:03:32.781Z,5.40
2023-02-25T23:06:00.351Z,8.90
2023-02-25T23:08:27.358Z,4.38
2023-02-25T23:10:54.220Z,8.00
2023-02-25T23:13:21.037Z,10.52
2023-02-25T23:15:48.057Z,11.82
2023-02-25T23:18:15.965Z,7.40
2023-02-25T23:20:42.618Z,4.82
2023-02-25T23:23:09.520Z,7.60
2023-02-25T23:25:39.491Z,6.97
2023-02-25T23:28:08.249Z,10.32
2023-02-25T23:30:39.001Z,5.50
2023-02-25T23:33:06.658Z,8.20
2023-02-25T23:35:38.302Z,9.68
2023-02-25T23:38:04.780Z,8.38
2023-02-25T23:40:31.494Z,5.65
2023-02-25T23:42:58.256Z,5.30
2023-02-25T23:45:24.730Z,5.05
2023-02-25T23:47:51.501Z,4.68
2023-02-25T23:50:19.016Z,4.63
2023-02-25T23:52:46.644Z,8.07
2023-02-25T23:55:14.041Z,4.72
2023-02-25T23:57:40.889Z,5.07
